createdAt,value
2022-09-21T00:00:51.943Z,1.50
2022-09-21T00:06:06.600Z,1.50
2022-09-21T00:11:18.474Z,1.90
2022-09-21T00:16:26.698Z,1.30
2022-09-21T00:21:35.548Z,1.40
2022-09-21T00:26:43.530Z,1.50
2022-09-21T00:31:51.514Z,1.40
2022-09-21T00:36:58.816Z,1.50
2022-09-21T00:42:17.542Z,1.50
2022-09-21T00:47:29.714Z,1.40
2022-09-21T00:57:49.523Z,1.30
2022-09-21T01:03:03.098Z,1.80
2022-09-21T01:08:12.838Z,1.50
2022-09-21T01:13:31.432Z,1.80
2022-09-21T01:18:44.447Z,1.40
2022-09-21T01:24:25.780Z,1.50
2022-09-21T01:29:40.142Z,1.90
2022-09-21T01:34:52.903Z,1.60
2022-09-21T01:40:06.383Z,1.70
2022-09-21T01:45:17.715Z,1.50
2022-09-21T01:50:27.545Z,1.40
2022-09-21T01:55:42.974Z,1.20
2022-09-21T02:00:53.998Z,1.20
2022-09-21T02:06:04.362Z,1.60
2022-09-21T02:11:13.646Z,1.50
2022-09-21T02:16:40.001Z,1.20
2022-09-21T02:22:05.449Z,1.10
2022-09-21T02:27:26.079Z,1.30
2022-09-21T02:32:39.563Z,1.50
2022-09-21T02:37:57.279Z,1.30
2022-09-21T02:43:09.943Z,1.50
2022-09-21T02:48:22.487Z,1.50
2022-09-21T02:53:34.907Z,1.60
2022-09-21T02:58:45.840Z,2.10
2022-09-21T03:03:54.587Z,1.80
2022-09-21T03:09:03.008Z,2.10
2022-09-21T03:14:11.119Z,2.00
2022-09-21T03:19:19.236Z,2.10
2022-09-21T03:24:44.627Z,1.90
2022-09-21T03:29:53.002Z,1.90
2022-09-21T03:35:00.790Z,1.90
2022-09-21T03:40:09.563Z,1.90
2022-09-21T03:45:16.846Z,2.10
2022-09-21T03:50:29.145Z,2.00
2022-09-21T04:00:43.369Z,2.20
2022-09-21T04:05:51.317Z,2.60
2022-09-21T04:11:00.436Z,2.60
2022-09-21T04:16:10.069Z,2.70
2022-09-21T04:21:17.988Z,3.00
2022-09-21T04:26:27.943Z,2.90
2022-09-21T04:31:36.873Z,3.20
2022-09-21T04:36:44.855Z,3.20
2022-09-21T04:41:52.906Z,3.50
2022-09-21T04:47:00.916Z,3.40
2022-09-21T04:52:09.182Z,3.60
2022-09-21T04:57:17.390Z,4.00
2022-09-21T05:02:25.737Z,3.60
2022-09-21T05:07:34.215Z,3.30
2022-09-21T05:12:44.354Z,3.70
2022-09-21T05:17:52.468Z,3.30
2022-09-21T05:23:03.885Z,3.20
2022-09-21T05:28:13.306Z,3.20
2022-09-21T05:33:23.821Z,2.90
2022-09-21T05:38:33.552Z,3.10
2022-09-21T05:43:42.268Z,3.50
2022-09-21T05:49:00.172Z,2.90
2022-09-21T05:54:17.266Z,2.70
2022-09-21T05:59:41.748Z,2.90
2022-09-21T06:04:52.333Z,2.90
2022-09-21T06:10:00.234Z,3.20
2022-09-21T06:15:12.541Z,2.70
2022-09-21T06:20:20.829Z,2.60
2022-09-21T06:25:28.646Z,2.50
2022-09-21T06:30:37.526Z,2.70
2022-09-21T06:35:45.828Z,2.50
2022-09-21T06:40:54.879Z,2.40
2022-09-21T06:46:04.018Z,2.50
2022-09-21T06:51:13.153Z,2.60
2022-09-21T06:56:21.684Z,3.00
2022-09-21T07:01:29.992Z,2.90
2022-09-21T07:06:38.782Z,3.20
2022-09-21T07:11:46.947Z,3.30
2022-09-21T07:16:56.297Z,2.90
2022-09-21T07:22:05.055Z,2.80
2022-09-21T07:27:13.204Z,2.80
2022-09-21T07:32:21.231Z,2.80
2022-09-21T07:37:30.502Z,2.70
2022-09-21T07:42:38.343Z,2.50
2022-09-21T07:47:46.850Z,3.60
2022-09-21T07:52:54.753Z,3.50
2022-09-21T07:58:21.781Z,2.20
2022-09-21T08:03:28.944Z,2.90
2022-09-21T08:08:36.317Z,2.50
2022-09-21T08:13:43.328Z,2.10
2022-09-21T08:18:50.636Z,2.50
2022-09-21T08:23:58.161Z,1.90
2022-09-21T08:29:06.939Z,2.30
2022-09-21T08:34:14.023Z,1.50
2022-09-21T08:39:21.079Z,1.40
2022-09-21T08:44:31.343Z,1.50
2022-09-21T08:49:42.533Z,2.10
2022-09-21T08:54:56.825Z,1.50
2022-09-21T09:00:14.837Z,1.30
2022-09-21T09:05:35.516Z,2.10
2022-09-21T09:10:52.488Z,1.80
2022-09-21T09:16:08.887Z,1.50
2022-09-21T09:21:30.911Z,1.40
2022-09-21T09:26:46.314Z,1.60
2022-09-21T09:31:56.323Z,1.40
2022-09-21T09:37:12.414Z,1.10
2022-09-21T09:42:33.446Z,1.30
2022-09-21T09:47:53.335Z,1.10
2022-09-21T09:53:05.991Z,0.80
2022-09-21T09:58:21.184Z,1.10
2022-09-21T10:03:29.371Z,1.20
2022-09-21T10:08:48.104Z,1.40
2022-09-21T10:13:56.382Z,1.50
2022-09-21T10:19:04.129Z,3.20
2022-09-21T10:24:24.087Z,2.80
2022-09-21T10:29:41.560Z,2.20
2022-09-21T10:35:16.904Z,1.80
2022-09-21T10:40:32.271Z,1.40
2022-09-21T10:45:39.740Z,1.50
2022-09-21T10:50:49.660Z,4.50
2022-09-21T10:56:15.657Z,2.60
2022-09-21T11:01:29.806Z,2.60
2022-09-21T11:06:42.722Z,2.70
2022-09-21T11:11:58.055Z,4.10
2022-09-21T11:17:11.692Z,3.40
2022-09-21T11:22:26.572Z,2.80
2022-09-21T11:27:36.973Z,1.80
2022-09-21T11:33:00.671Z,1.40
2022-09-21T11:38:22.645Z,2.20
2022-09-21T11:43:45.471Z,1.80
2022-09-21T11:49:06.405Z,1.20
2022-09-21T11:54:40.857Z,3.80
2022-09-21T12:00:16.220Z,1.10
2022-09-21T12:05:32.062Z,4.60
2022-09-21T12:10:46.876Z,2.70
2022-09-21T12:16:00.147Z,2.20
2022-09-21T12:21:16.200Z,1.60
2022-09-21T12:26:27.196Z,1.40
2022-09-21T12:31:41.494Z,0.90
2022-09-21T12:36:55.564Z,0.60
2022-09-21T12:42:09.798Z,1.00
2022-09-21T12:47:18.248Z,0.60
2022-09-21T12:52:29.518Z,0.80
2022-09-21T12:58:13.989Z,0.70
2022-09-21T13:03:28.242Z,0.80
2022-09-21T13:08:39.364Z,0.70
2022-09-21T13:13:53.294Z,0.50
2022-09-21T13:19:03.093Z,0.60
2022-09-21T13:24:27.487Z,0.50
2022-09-21T13:29:37.032Z,0.50
2022-09-21T13:34:45.712Z,0.50
2022-09-21T13:40:20.214Z,0.40
2022-09-21T13:45:50.924Z,0.60
2022-09-21T13:51:01.921Z,0.60
2022-09-21T13:56:20.730Z,0.80
2022-09-21T14:01:46.830Z,0.60
2022-09-21T14:06:56.868Z,0.60
2022-09-21T14:12:08.633Z,0.70
2022-09-21T14:17:39.034Z,1.10
2022-09-21T14:22:47.331Z,1.00
2022-09-21T14:27:55.542Z,1.10
2022-09-21T14:33:20.400Z,0.90
2022-09-21T14:38:31.188Z,0.80
2022-09-21T14:43:42.416Z,0.60
2022-09-21T14:49:00.897Z,0.60
2022-09-21T14:54:22.988Z,0.70
2022-09-21T15:04:56.656Z,0.90
2022-09-21T15:10:39.596Z,0.90
2022-09-21T15:16:00.467Z,0.80
2022-09-21T15:21:22.299Z,0.80
2022-09-21T15:26:32.360Z,1.10
2022-09-21T15:31:41.954Z,1.70
2022-09-21T15:36:52.474Z,1.60
2022-09-21T15:42:24.255Z,2.00
2022-09-21T15:47:31.888Z,2.00
2022-09-21T15:52:44.585Z,2.20
2022-09-21T15:57:53.548Z,3.10
2022-09-21T16:03:07.816Z,6.20
2022-09-21T16:08:30.387Z,5.30
2022-09-21T16:13:55.303Z,4.20
2022-09-21T16:19:02.717Z,4.00
2022-09-21T16:24:19.710Z,4.00
2022-09-21T16:29:28.907Z,3.70
2022-09-21T16:34:37.613Z,2.70
2022-09-21T16:39:45.008Z,1.80
2022-09-21T16:44:53.220Z,3.00
2022-09-21T16:50:02.131Z,5.00
2022-09-21T16:55:11.983Z,6.60
2022-09-21T17:00:22.405Z,7.00
2022-09-21T17:05:29.950Z,7.20
2022-09-21T17:10:41.396Z,6.10
2022-09-21T17:15:51.203Z,5.90
2022-09-21T17:20:58.742Z,3.70
2022-09-21T17:26:05.819Z,3.20
2022-09-21T17:31:15.958Z,2.80
2022-09-21T17:36:23.399Z,2.70
2022-09-21T17:41:36.714Z,1.80
2022-09-21T17:46:55.502Z,1.70
2022-09-21T17:52:21.280Z,3.40
2022-09-21T17:57:41.995Z,4.80
2022-09-21T18:02:50.019Z,4.80
2022-09-21T18:07:58.427Z,4.40
2022-09-21T18:13:25.199Z,3.90
2022-09-21T18:18:44.910Z,3.60
2022-09-21T18:24:18.115Z,3.20
2022-09-21T18:29:40.726Z,2.20
2022-09-21T18:35:12.521Z,3.00
2022-09-21T18:40:28.113Z,2.80
2022-09-21T18:45:43.363Z,2.20
2022-09-21T18:51:00.119Z,2.10
2022-09-21T18:56:12.280Z,1.80
2022-09-21T19:01:22.661Z,1.40
2022-09-21T19:06:46.875Z,1.50
2022-09-21T19:12:03.107Z,2.20
2022-09-21T19:17:23.601Z,1.60
2022-09-21T19:22:41.940Z,1.80
2022-09-21T19:27:56.957Z,1.50
2022-09-21T19:33:48.839Z,2.00
2022-09-21T19:38:55.703Z,2.00
2022-09-21T19:44:11.995Z,2.00
2022-09-21T19:49:21.457Z,2.10
2022-09-21T19:54:47.501Z,2.40
2022-09-21T19:59:56.094Z,2.50
2022-09-21T20:05:08.136Z,2.30
2022-09-21T20:10:50.611Z,1.70
2022-09-21T20:16:04.199Z,1.60
2022-09-21T20:21:16.182Z,1.90
2022-09-21T20:26:27.450Z,4.40
2022-09-21T20:31:34.517Z,2.90
2022-09-21T20:36:41.639Z,41.40
2022-09-21T20:41:49.137Z,20.30
2022-09-21T20:46:56.443Z,20.10
2022-09-21T20:52:04.017Z,11.50
2022-09-21T20:57:11.663Z,8.50
2022-09-21T21:02:19.319Z,14.30
2022-09-21T21:07:30.370Z,470.60
2022-09-21T21:12:39.189Z,364.40
2022-09-21T21:17:48.305Z,491.50
2022-09-21T21:22:56.336Z,484.80
2022-09-21T21:28:03.918Z,313.10
2022-09-21T21:33:11.587Z,177.20
2022-09-21T21:38:18.867Z,109.60
2022-09-21T21:43:26.387Z,80.10
2022-09-21T21:48:34.157Z,81.50
2022-09-21T21:53:43.232Z,96.50
2022-09-21T21:58:52.997Z,98.40
2022-09-21T22:04:01.659Z,81.40
2022-09-21T22:09:12.557Z,83.80
2022-09-21T22:14:20.545Z,72.30
2022-09-21T22:19:28.200Z,42.20
2022-09-21T22:24:35.441Z,22.20
2022-09-21T22:29:42.622Z,19.70
2022-09-21T22:34:50.895Z,20.50
2022-09-21T22:40:00.036Z,19.70
2022-09-21T22:45:08.452Z,13.90
2022-09-21T22:50:16.094Z,11.20
2022-09-21T22:55:24.261Z,10.60
2022-09-21T23:00:32.500Z,15.20
2022-09-21T23:05:40.143Z,16.00
2022-09-21T23:10:47.525Z,24.70
2022-09-21T23:15:55.057Z,28.80
2022-09-21T23:21:06.191Z,17.80
2022-09-21T23:26:16.641Z,8.70
2022-09-21T23:31:24.581Z,5.10
2022-09-21T23:36:33.591Z,3.80
2022-09-21T23:41:40.843Z,2.60
2022-09-21T23:46:48.149Z,2.50
2022-09-21T23:51:55.463Z,2.40
2022-09-21T23:57:03.050Z,2.20
